| time (UTC) | temp F | wind direction | speed MPH | gust MPH | rain 1hr in | rain 24hr in | rain mn in | humidity % | barometer mb |
| 20260507094728 | 53 | 227 | 5.0 | 10.0 | 0.00 | 0.00 | 0.00 | 21 | 1016.1 |
| 20260507090728 | 52 | 283 | 6.0 | 12.0 | 0.00 | 0.00 | 0.00 | 21 | 1016.3 |
| 20260507084727 | 51 | 270 | 6.0 | 9.0 | 0.00 | 0.00 | 0.00 | 23 | 1016.3 |
| 20260507082728 | 51 | 280 | 3.0 | 8.0 | 0.00 | 0.00 | 0.00 | 23 | 1016.3 |
| 20260507080727 | 50 | 156 | 4.0 | 9.0 | 0.00 | 0.00 | 0.00 | 22 | 1016.3 |
| 20260507074727 | 49 | 254 | 2.0 | 4.0 | 0.00 | 0.00 | 0.00 | 22 | 1016.4 |
| 20260507072727 | 49 | 105 | 3.0 | 7.0 | 0.00 | 0.00 | 0.00 | 24 | 1016.5 |
| 20260507070727 | 49 | 60 | 5.0 | 8.0 | 0.00 | 0.00 | 0.00 | 27 | 1016.4 |
| 20260507064727 | 47 | 111 | 6.0 | 9.0 | 0.00 | 0.00 | 0.00 | 26 | 1016.5 |
| 20260507062727 | 46 | 95 | 7.0 | 9.0 | 0.00 | 0.00 | 0.00 | 27 | 1016.4 |
| 20260507060727 | 45 | 102 | 7.0 | 9.0 | 0.00 | 0.00 | 0.00 | 34 | 1016.4 |
| 20260507055051 | 43 | 93 | 7.0 | 10.0 | 0.00 | 0.00 | 0.00 | 35 | 1016.4 |
| 20260507052727 | 42 | 79 | 6.0 | 9.0 | 0.00 | 0.00 | 0.00 | 38 | 1016.3 |
| 20260507050726 | 40 | 94 | 6.0 | 9.0 | 0.00 | 0.00 | 0.00 | 43 | 1016.3 |
| 20260507044727 | 39 | 91 | 4.0 | 5.0 | 0.00 | 0.00 | 0.00 | 50 | 1016.3 |
| 20260507042726 | 35 | 105 | 2.0 | 4.0 | 0.00 | 0.00 | 0.00 | 55 | 1016.4 |
| 20260507040728 | 33 | 73 | 1.0 | 2.0 | 0.00 | 0.00 | 0.00 | 64 | 1016.4 |
| 20260507034727 | 28 | 77 | 1.0 | 2.0 | 0.00 | 0.00 | 0.00 | 75 | 1016.4 |
| 20260507032727 | 26 | 100 | 2.0 | 3.0 | 0.00 | 0.00 | 0.00 | 70 | 1016.3 |
| 20260507030728 | 26 | 53 | 2.0 | 2.0 | 0.00 | 0.00 | 0.00 | 72 | 1016.3 |
| 20260507024726 | 24 | 23 | 2.0 | 3.0 | 0.00 | 0.00 | 0.00 | 73 | 1016.3 |
| 20260507023052 | 24 | 97 | 1.0 | 2.0 | 0.00 | 0.00 | 0.00 | 73 | 1016.2 |
| 20260507020726 | 24 | 108 | 2.0 | 2.0 | 0.00 | 0.00 | 0.00 | 75 | 1016.2 |
| 20260507014726 | 25 | 52 | 2.0 | 2.0 | 0.00 | 0.00 | 0.00 | 72 | 1016.1 |
| 20260507012726 | 24 | 22 | 2.0 | 4.0 | 0.00 | 0.00 | 0.00 | 76 | 1016.0 |
| 20260507010726 | 24 | 9 | 2.0 | 3.0 | 0.00 | 0.00 | 0.00 | 75 | 1016.0 |
| 20260507004726 | 24 | 21 | 2.0 | 2.0 | 0.00 | 0.00 | 0.00 | 78 | 1015.8 |
| 20260507002727 | 25 | 25 | 2.0 | 3.0 | 0.00 | 0.00 | 0.00 | 78 | 1015.7 |
| 20260507000726 | 25 | 101 | 1.0 | 2.0 | 0.00 | 0.00 | 0.00 | 68 | 1015.6 |
| 20260506234727 | 26 | 130 | 2.0 | 2.0 | 0.00 | 0.00 | 0.00 | 71 | 1015.5 |
| 20260506232726 | 26 | 59 | 1.0 | 2.0 | 0.00 | 0.00 | 0.00 | 71 | 1015.4 |
| 20260506230727 | 26 | 100 | 2.0 | 3.0 | 0.00 | 0.00 | 0.00 | 74 | 1015.4 |
| 20260506224725 | 27 | 111 | 2.0 | 3.0 | 0.00 | 0.00 | 0.00 | 68 | 1015.4 |
| 20260506222726 | 27 | 123 | 1.0 | 2.0 | 0.00 | 0.00 | 0.00 | 64 | 1015.3 |
| 20260506220726 | 28 | 67 | 1.0 | 2.0 | 0.00 | 0.00 | 0.00 | 64 | 1015.3 |
| 20260506214726 | 28 | 351 | 2.0 | 4.0 | 0.00 | 0.00 | 0.00 | 61 | 1015.2 |
| 20260506212726 | 28 | 345 | 1.0 | 2.0 | 0.00 | 0.00 | 0.00 | 62 | 1015.3 |
| 20260506210726 | 28 | 41 | 2.0 | 2.0 | 0.00 | 0.00 | 0.00 | 72 | 1015.1 |
| 20260506202725 | 32 | 129 | 1.0 | 2.0 | 0.00 | 0.00 | 0.00 | 50 | 1014.9 |
| 20260506200726 | 33 | 86 | 1.0 | 1.0 | 0.00 | 0.00 | 0.00 | 52 | 1015.0 |
| 20260506194725 | 34 | 317 | 1.0 | 2.0 | 0.00 | 0.00 | 0.00 | 46 | 1014.9 |
| 20260506192725 | 37 | 316 | 3.0 | 5.0 | 0.00 | 0.00 | 0.00 | 42 | 1015.0 |
| 20260506190725 | 41 | 312 | 4.0 | 6.0 | 0.00 | 0.00 | 0.00 | 32 | 1014.8 |
| 20260506184725 | 42 | 289 | 4.0 | 5.0 | 0.00 | 0.00 | 0.00 | 30 | 1014.7 |
| 20260506182726 | 44 | 289 | 4.0 | 5.0 | 0.00 | 0.00 | 0.00 | 26 | 1014.7 |
| 20260506180725 | 46 | 289 | 5.0 | 6.0 | 0.00 | 0.00 | 0.00 | 24 | 1014.7 |
| 20260506174726 | 45 | 280 | 6.0 | 9.0 | 0.00 | 0.00 | 0.00 | 26 | 1014.6 |
| 20260506172724 | 47 | 287 | 7.0 | 9.0 | 0.00 | 0.00 | 0.00 | 24 | 1014.5 |
| 20260506170725 | 47 | 291 | 7.0 | 10.0 | 0.00 | 0.00 | 0.00 | 23 | 1014.5 |
| 20260506164724 | 47 | 302 | 7.0 | 12.0 | 0.00 | 0.00 | 0.00 | 23 | 1014.5 |
| 20260506162725 | 48 | 311 | 8.0 | 14.0 | 0.00 | 0.00 | 0.00 | 22 | 1014.4 |
| 20260506160724 | 50 | 285 | 8.0 | 13.0 | 0.00 | 0.00 | 0.00 | 21 | 1014.3 |
| 20260506154725 | 49 | 302 | 10.0 | 17.0 | 0.00 | 0.00 | 0.00 | 22 | 1014.3 |
| 20260506152725 | 50 | 309 | 6.0 | 12.0 | 0.00 | 0.00 | 0.00 | 22 | 1014.3 |
| 20260506150724 | 49 | 297 | 8.0 | 14.0 | 0.00 | 0.00 | 0.00 | 21 | 1014.3 |
| 20260506144724 | 51 | 297 | 10.0 | 16.0 | 0.00 | 0.00 | 0.00 | 21 | 1014.4 |
| 20260506142724 | 50 | 305 | 6.0 | 19.0 | 0.00 | 0.00 | 0.00 | 22 | 1014.3 |
| 20260506140724 | 51 | 279 | 9.0 | 15.0 | 0.00 | 0.00 | 0.00 | 22 | 1014.4 |
| 20260506134724 | 50 | 280 | 9.0 | 16.0 | 0.00 | 0.00 | 0.00 | 20 | 1014.4 |
| 20260506132724 | 50 | 312 | 10.0 | 18.0 | 0.00 | 0.00 | 0.00 | 21 | 1014.5 |
| 20260506130723 | 50 | 276 | 10.0 | 14.0 | 0.00 | 0.00 | 0.00 | 21 | 1014.4 |
| 20260506124723 | 51 | 296 | 13.0 | 20.0 | 0.00 | 0.00 | 0.00 | 22 | 1014.3 |
| 20260506122723 | 49 | 318 | 9.0 | 16.0 | 0.00 | 0.00 | 0.00 | 22 | 1014.5 |
| 20260506120724 | 49 | 312 | 9.0 | 19.0 | 0.00 | 0.00 | 0.00 | 22 | 1014.3 |
| 20260506114724 | 49 | 324 | 13.0 | 21.0 | 0.00 | 0.00 | 0.00 | 22 | 1014.3 |
| 20260506112724 | 49 | 283 | 12.0 | 20.0 | 0.00 | 0.00 | 0.00 | 25 | 1014.3 |
| 20260506110724 | 51 | 281 | 11.0 | 19.0 | 0.00 | 0.00 | 0.00 | 26 | 1014.2 |
| 20260506104725 | 49 | 299 | 10.0 | 17.0 | 0.00 | 0.00 | 0.00 | 22 | 1014.2 |
| 20260506102725 | 50 | 292 | 11.0 | 19.0 | 0.00 | 0.00 | 0.00 | 26 | 1014.2 |
| 20260506100726 | 49 | 308 | 11.0 | 17.0 | 0.00 | 0.00 | 0.00 | 26 | 1014.0 |